sensor_id;sensor_type;location;lat;lon;timestamp;P1;durP1;ratioP1;P2;durP2;ratioP2
73672;SDS011;61972;19.480;-99.240;2024-03-23T00:54:09;9.50;;;4.23;;
73672;SDS011;61972;19.480;-99.240;2024-03-23T00:56:35;10.27;;;4.25;;
73672;SDS011;61972;19.480;-99.240;2024-03-23T00:59:01;6.68;;;4.03;;
73672;SDS011;61972;19.480;-99.240;2024-03-23T01:01:27;10.38;;;4.60;;
73672;SDS011;61972;19.480;-99.240;2024-03-23T01:03:53;12.32;;;6.10;;
73672;SDS011;61972;19.480;-99.240;2024-03-23T01:06:19;13.10;;;7.00;;
73672;SDS011;61972;19.480;-99.240;2024-03-23T01:08:45;15.45;;;6.80;;
73672;SDS011;61972;19.480;-99.240;2024-03-23T01:11:13;13.25;;;6.40;;
73672;SDS011;61972;19.480;-99.240;2024-03-23T01:13:39;12.88;;;5.85;;
73672;SDS011;61972;19.480;-99.240;2024-03-23T01:16:05;8.77;;;4.90;;
73672;SDS011;61972;19.480;-99.240;2024-03-23T01:18:32;11.23;;;4.40;;
73672;SDS011;61972;19.480;-99.240;2024-03-23T01:20:58;10.90;;;4.40;;
73672;SDS011;61972;19.480;-99.240;2024-03-23T01:23:24;8.15;;;4.95;;
73672;SDS011;61972;19.480;-99.240;2024-03-23T01:25:53;7.82;;;4.65;;
73672;SDS011;61972;19.480;-99.240;2024-03-23T01:28:20;12.43;;;4.90;;
73672;SDS011;61972;19.480;-99.240;2024-03-23T01:30:47;10.03;;;4.33;;
73672;SDS011;61972;19.480;-99.240;2024-03-23T01:33:14;9.50;;;5.07;;
73672;SDS011;61972;19.480;-99.240;2024-03-23T01:35:40;7.00;;;4.72;;
73672;SDS011;61972;19.480;-99.240;2024-03-23T01:38:06;10.10;;;4.57;;
73672;SDS011;61972;19.480;-99.240;2024-03-23T01:40:32;9.70;;;4.97;;
73672;SDS011;61972;19.480;-99.240;2024-03-23T01:43:01;8.87;;;5.07;;
73672;SDS011;61972;19.480;-99.240;2024-03-23T01:45:30;12.38;;;5.15;;
73672;SDS011;61972;19.480;-99.240;2024-03-23T01:47:57;12.40;;;5.55;;
73672;SDS011;61972;19.480;-99.240;2024-03-23T01:50:23;12.95;;;5.32;;
73672;SDS011;61972;19.480;-99.240;2024-03-23T01:52:50;10.65;;;5.30;;
73672;SDS011;61972;19.480;-99.240;2024-03-23T01:55:16;18.17;;;6.00;;
73672;SDS011;61972;19.480;-99.240;2024-03-23T01:57:42;13.45;;;6.55;;
73672;SDS011;61972;19.480;-99.240;2024-03-23T02:00:08;9.75;;;6.45;;
73672;SDS011;61972;19.480;-99.240;2024-03-23T02:02:44;14.23;;;7.78;;
73672;SDS011;61972;19.480;-99.240;2024-03-23T02:05:13;17.95;;;8.88;;
73672;SDS011;61972;19.480;-99.240;2024-03-23T02:07:40;16.00;;;8.67;;
73672;SDS011;61972;19.480;-99.240;2024-03-23T02:10:09;17.67;;;9.73;;
73672;SDS011;61972;19.480;-99.240;2024-03-23T02:12:45;17.88;;;9.40;;
73672;SDS011;61972;19.480;-99.240;2024-03-23T02:15:11;17.20;;;9.48;;
73672;SDS011;61972;19.480;-99.240;2024-03-23T02:17:37;16.33;;;9.70;;
73672;SDS011;61972;19.480;-99.240;2024-03-23T02:20:03;20.17;;;10.17;;
73672;SDS011;61972;19.480;-99.240;2024-03-23T02:22:37;22.80;;;10.23;;
73672;SDS011;61972;19.480;-99.240;2024-03-23T02:25:05;27.95;;;10.15;;
73672;SDS011;61972;19.480;-99.240;2024-03-23T02:27:33;19.17;;;9.30;;
73672;SDS011;61972;19.480;-99.240;2024-03-23T02:30:04;17.70;;;9.18;;
73672;SDS011;61972;19.480;-99.240;2024-03-23T02:32:31;21.70;;;11.10;;
73672;SDS011;61972;19.480;-99.240;2024-03-23T02:34:59;16.08;;;10.15;;
73672;SDS011;61972;19.480;-99.240;2024-03-23T02:37:25;23.92;;;12.05;;
73672;SDS011;61972;19.480;-99.240;2024-03-23T02:39:52;25.02;;;11.80;;
73672;SDS011;61972;19.480;-99.240;2024-03-23T02:42:18;22.60;;;11.65;;
73672;SDS011;61972;19.480;-99.240;2024-03-23T02:44:44;27.80;;;13.40;;
73672;SDS011;61972;19.480;-99.240;2024-03-23T02:47:11;27.42;;;13.30;;
73672;SDS011;61972;19.480;-99.240;2024-03-23T02:49:37;23.17;;;13.70;;
73672;SDS011;61972;19.480;-99.240;2024-03-23T02:52:03;24.25;;;12.98;;
73672;SDS011;61972;19.480;-99.240;2024-03-23T02:54:30;23.70;;;13.13;;
73672;SDS011;61972;19.480;-99.240;2024-03-23T02:56:56;26.53;;;13.70;;
73672;SDS011;61972;19.480;-99.240;2024-03-23T02:59:22;24.90;;;12.27;;
73672;SDS011;61972;19.480;-99.240;2024-03-23T03:01:48;26.75;;;13.23;;
73672;SDS011;61972;19.480;-99.240;2024-03-23T03:04:14;20.83;;;12.88;;
73672;SDS011;61972;19.480;-99.240;2024-03-23T03:06:43;26.65;;;13.00;;
73672;SDS011;61972;19.480;-99.240;2024-03-23T03:09:14;20.97;;;11.20;;
73672;SDS011;61972;19.480;-99.240;2024-03-23T03:11:40;22.13;;;11.43;;
73672;SDS011;61972;19.480;-99.240;2024-03-23T03:14:06;19.23;;;11.20;;
73672;SDS011;61972;19.480;-99.240;2024-03-23T03:16:33;21.25;;;10.98;;
73672;SDS011;61972;19.480;-99.240;2024-03-23T03:18:59;21.00;;;10.93;;
73672;SDS011;61972;19.480;-99.240;2024-03-23T03:21:26;20.00;;;10.57;;
73672;SDS011;61972;19.480;-99.240;2024-03-23T03:23:52;23.30;;;11.00;;
73672;SDS011;61972;19.480;-99.240;2024-03-23T03:26:18;22.02;;;10.73;;
73672;SDS011;61972;19.480;-99.240;2024-03-23T03:28:44;20.10;;;11.10;;
73672;SDS011;61972;19.480;-99.240;2024-03-23T03:31:16;24.30;;;11.48;;
73672;SDS011;61972;19.480;-99.240;2024-03-23T03:33:46;23.43;;;10.63;;
73672;SDS011;61972;19.480;-99.240;2024-03-23T03:36:16;24.65;;;10.70;;
73672;SDS011;61972;19.480;-99.240;2024-03-23T03:38:42;19.27;;;11.05;;
73672;SDS011;61972;19.480;-99.240;2024-03-23T03:41:09;22.70;;;11.32;;
73672;SDS011;61972;19.480;-99.240;2024-03-23T03:43:35;24.52;;;11.20;;
73672;SDS011;61972;19.480;-99.240;2024-03-23T03:46:02;34.67;;;11.53;;
73672;SDS011;61972;19.480;-99.240;2024-03-23T03:48:28;27.15;;;11.75;;
73672;SDS011;61972;19.480;-99.240;2024-03-23T03:50:56;29.02;;;11.48;;
73672;SDS011;61972;19.480;-99.240;2024-03-23T03:53:22;28.20;;;11.18;;
73672;SDS011;61972;19.480;-99.240;2024-03-23T03:55:48;22.10;;;11.45;;
73672;SDS011;61972;19.480;-99.240;2024-03-23T03:58:15;25.13;;;11.47;;
73672;SDS011;61972;19.480;-99.240;2024-03-23T04:00:42;25.38;;;12.57;;
73672;SDS011;61972;19.480;-99.240;2024-03-23T04:03:08;27.23;;;13.05;;
73672;SDS011;61972;19.480;-99.240;2024-03-23T04:05:36;23.05;;;12.07;;
73672;SDS011;61972;19.480;-99.240;2024-03-23T04:08:03;22.75;;;13.25;;
73672;SDS011;61972;19.480;-99.240;2024-03-23T04:10:30;21.80;;;13.07;;
73672;SDS011;61972;19.480;-99.240;2024-03-23T04:12:56;22.55;;;12.35;;
73672;SDS011;61972;19.480;-99.240;2024-03-23T04:15:22;25.40;;;14.00;;
73672;SDS011;61972;19.480;-99.240;2024-03-23T04:17:51;22.20;;;12.85;;
73672;SDS011;61972;19.480;-99.240;2024-03-23T04:20:17;28.35;;;15.88;;
73672;SDS011;61972;19.480;-99.240;2024-03-23T04:22:43;33.73;;;19.80;;
73672;SDS011;61972;19.480;-99.240;2024-03-23T04:25:11;32.60;;;18.65;;
73672;SDS011;61972;19.480;-99.240;2024-03-23T04:27:38;37.65;;;21.08;;
73672;SDS011;61972;19.480;-99.240;2024-03-23T04:30:06;29.30;;;17.25;;
73672;SDS011;61972;19.480;-99.240;2024-03-23T04:32:39;32.72;;;19.92;;
73672;SDS011;61972;19.480;-99.240;2024-03-23T04:35:10;38.03;;;21.03;;
73672;SDS011;61972;19.480;-99.240;2024-03-23T04:37:36;31.45;;;20.23;;
73672;SDS011;61972;19.480;-99.240;2024-03-23T04:40:06;38.30;;;21.58;;
73672;SDS011;61972;19.480;-99.240;2024-03-23T04:42:32;33.50;;;20.25;;
73672;SDS011;61972;19.480;-99.240;2024-03-23T04:45:03;35.35;;;21.10;;
73672;SDS011;61972;19.480;-99.240;2024-03-23T04:47:32;38.43;;;20.17;;
73672;SDS011;61972;19.480;-99.240;2024-03-23T04:50:01;38.72;;;20.30;;
73672;SDS011;61972;19.480;-99.240;2024-03-23T04:52:29;34.75;;;20.77;;
73672;SDS011;61972;19.480;-99.240;2024-03-23T04:54:55;36.42;;;20.40;;
73672;SDS011;61972;19.480;-99.240;2024-03-23T04:57:23;38.67;;;21.17;;
73672;SDS011;61972;19.480;-99.240;2024-03-23T04:59:49;34.00;;;20.30;;
73672;SDS011;61972;19.480;-99.240;2024-03-23T05:02:16;36.35;;;20.95;;
73672;SDS011;61972;19.480;-99.240;2024-03-23T05:04:42;37.15;;;20.70;;
73672;SDS011;61972;19.480;-99.240;2024-03-23T05:07:09;36.47;;;20.80;;
73672;SDS011;61972;19.480;-99.240;2024-03-23T05:09:35;40.00;;;20.50;;
73672;SDS011;61972;19.480;-99.240;2024-03-23T05:12:01;35.07;;;19.10;;
73672;SDS011;61972;19.480;-99.240;2024-03-23T05:14:28;35.40;;;19.33;;
73672;SDS011;61972;19.480;-99.240;2024-03-23T05:16:54;32.83;;;18.77;;
73672;SDS011;61972;19.480;-99.240;2024-03-23T05:19:21;34.35;;;19.67;;
73672;SDS011;61972;19.480;-99.240;2024-03-23T05:21:47;32.05;;;19.00;;
73672;SDS011;61972;19.480;-99.240;2024-03-23T05:24:13;39.63;;;18.23;;
73672;SDS011;61972;19.480;-99.240;2024-03-23T05:26:41;29.45;;;18.35;;
73672;SDS011;61972;19.480;-99.240;2024-03-23T05:29:07;31.50;;;19.15;;
73672;SDS011;61972;19.480;-99.240;2024-03-23T05:31:36;31.30;;;17.40;;
73672;SDS011;61972;19.480;-99.240;2024-03-23T05:34:07;33.58;;;17.95;;
73672;SDS011;61972;19.480;-99.240;2024-03-23T05:36:34;30.27;;;16.73;;
73672;SDS011;61972;19.480;-99.240;2024-03-23T05:39:02;31.80;;;17.45;;
73672;SDS011;61972;19.480;-99.240;2024-03-23T05:41:29;30.27;;;17.67;;
73672;SDS011;61972;19.480;-99.240;2024-03-23T05:43:56;28.52;;;17.92;;
73672;SDS011;61972;19.480;-99.240;2024-03-23T05:46:23;32.58;;;17.35;;
73672;SDS011;61972;19.480;-99.240;2024-03-23T05:48:50;27.83;;;17.30;;
73672;SDS011;61972;19.480;-99.240;2024-03-23T05:51:17;35.22;;;17.65;;
73672;SDS011;61972;19.480;-99.240;2024-03-23T05:53:43;31.05;;;17.05;;
73672;SDS011;61972;19.480;-99.240;2024-03-23T05:56:10;31.15;;;17.45;;
73672;SDS011;61972;19.480;-99.240;2024-03-23T05:58:37;31.20;;;18.13;;
73672;SDS011;61972;19.480;-99.240;2024-03-23T06:01:04;33.13;;;17.47;;
73672;SDS011;61972;19.480;-99.240;2024-03-23T06:03:31;28.55;;;17.63;;
73672;SDS011;61972;19.480;-99.240;2024-03-23T06:05:57;30.42;;;17.05;;
73672;SDS011;61972;19.480;-99.240;2024-03-23T06:08:23;27.45;;;16.55;;
73672;SDS011;61972;19.480;-99.240;2024-03-23T06:10:49;33.55;;;18.10;;
73672;SDS011;61972;19.480;-99.240;2024-03-23T06:13:15;29.07;;;17.70;;
73672;SDS011;61972;19.480;-99.240;2024-03-23T06:15:43;28.77;;;17.75;;
73672;SDS011;61972;19.480;-99.240;2024-03-23T06:18:13;30.80;;;18.35;;
73672;SDS011;61972;19.480;-99.240;2024-03-23T06:20:39;35.75;;;17.42;;
73672;SDS011;61972;19.480;-99.240;2024-03-23T06:23:05;33.50;;;17.55;;
73672;SDS011;61972;19.480;-99.240;2024-03-23T06:25:31;31.53;;;17.40;;
73672;SDS011;61972;19.480;-99.240;2024-03-23T06:27:59;35.05;;;17.08;;
73672;SDS011;61972;19.480;-99.240;2024-03-23T06:30:26;31.23;;;17.25;;
73672;SDS011;61972;19.480;-99.240;2024-03-23T06:32:53;26.55;;;16.40;;
73672;SDS011;61972;19.480;-99.240;2024-03-23T06:35:19;28.92;;;16.75;;
73672;SDS011;61972;19.480;-99.240;2024-03-23T06:37:45;30.70;;;16.43;;
73672;SDS011;61972;19.480;-99.240;2024-03-23T06:40:12;25.23;;;15.63;;
73672;SDS011;61972;19.480;-99.240;2024-03-23T06:42:39;23.95;;;16.58;;
73672;SDS011;61972;19.480;-99.240;2024-03-23T06:45:06;26.45;;;15.85;;
73672;SDS011;61972;19.480;-99.240;2024-03-23T06:47:33;25.17;;;15.93;;
73672;SDS011;61972;19.480;-99.240;2024-03-23T06:49:59;24.50;;;14.77;;
73672;SDS011;61972;19.480;-99.240;2024-03-23T06:52:29;24.88;;;15.15;;
73672;SDS011;61972;19.480;-99.240;2024-03-23T06:54:59;27.77;;;15.55;;
73672;SDS011;61972;19.480;-99.240;2024-03-23T06:57:25;21.55;;;14.25;;
73672;SDS011;61972;19.480;-99.240;2024-03-23T06:59:51;22.55;;;14.05;;
73672;SDS011;61972;19.480;-99.240;2024-03-23T07:02:20;22.37;;;14.30;;
73672;SDS011;61972;19.480;-99.240;2024-03-23T07:04:46;23.58;;;15.10;;
73672;SDS011;61972;19.480;-99.240;2024-03-23T07:07:12;24.00;;;14.77;;
73672;SDS011;61972;19.480;-99.240;2024-03-23T07:09:38;23.35;;;14.45;;
73672;SDS011;61972;19.480;-99.240;2024-03-23T07:12:05;21.33;;;13.77;;
73672;SDS011;61972;19.480;-99.240;2024-03-23T07:14:31;21.47;;;14.07;;
73672;SDS011;61972;19.480;-99.240;2024-03-23T07:16:57;20.67;;;13.50;;
73672;SDS011;61972;19.480;-99.240;2024-03-23T07:19:23;22.55;;;13.35;;
73672;SDS011;61972;19.480;-99.240;2024-03-23T07:21:49;18.45;;;12.95;;
73672;SDS011;61972;19.480;-99.240;2024-03-23T07:24:16;20.25;;;13.52;;
73672;SDS011;61972;19.480;-99.240;2024-03-23T07:26:45;21.50;;;14.00;;
73672;SDS011;61972;19.480;-99.240;2024-03-23T07:29:11;20.67;;;13.32;;
73672;SDS011;61972;19.480;-99.240;2024-03-23T07:31:37;21.15;;;14.02;;
73672;SDS011;61972;19.480;-99.240;2024-03-23T07:34:04;21.55;;;13.57;;
73672;SDS011;61972;19.480;-99.240;2024-03-23T07:36:31;19.38;;;13.10;;
73672;SDS011;61972;19.480;-99.240;2024-03-23T07:38:57;20.93;;;12.80;;
73672;SDS011;61972;19.480;-99.240;2024-03-23T07:41:23;19.35;;;12.30;;
73672;SDS011;61972;19.480;-99.240;2024-03-23T07:43:50;19.30;;;12.75;;
73672;SDS011;61972;19.480;-99.240;2024-03-23T07:46:20;18.50;;;11.77;;
73672;SDS011;61972;19.480;-99.240;2024-03-23T07:48:46;17.65;;;11.90;;
73672;SDS011;61972;19.480;-99.240;2024-03-23T07:51:20;18.20;;;11.77;;
73672;SDS011;61972;19.480;-99.240;2024-03-23T07:53:47;19.13;;;12.30;;
73672;SDS011;61972;19.480;-99.240;2024-03-23T07:56:14;18.42;;;12.23;;
73672;SDS011;61972;19.480;-99.240;2024-03-23T07:58:41;18.20;;;11.27;;
73672;SDS011;61972;19.480;-99.240;2024-03-23T08:01:12;18.05;;;12.38;;
73672;SDS011;61972;19.480;-99.240;2024-03-23T08:03:40;16.30;;;11.20;;
73672;SDS011;61972;19.480;-99.240;2024-03-23T08:06:09;17.23;;;11.60;;
73672;SDS011;61972;19.480;-99.240;2024-03-23T08:08:36;16.73;;;11.18;;
73672;SDS011;61972;19.480;-99.240;2024-03-23T08:11:04;18.42;;;11.30;;
73672;SDS011;61972;19.480;-99.240;2024-03-23T08:13:30;15.75;;;11.15;;
73672;SDS011;61972;19.480;-99.240;2024-03-23T08:15:57;18.17;;;11.57;;
73672;SDS011;61972;19.480;-99.240;2024-03-23T08:18:23;19.13;;;12.05;;
73672;SDS011;61972;19.480;-99.240;2024-03-23T08:20:56;14.90;;;10.27;;
73672;SDS011;61972;19.480;-99.240;2024-03-23T08:23:23;18.83;;;11.45;;
73672;SDS011;61972;19.480;-99.240;2024-03-23T08:26:02;18.50;;;11.38;;
73672;SDS011;61972;19.480;-99.240;2024-03-23T08:28:38;17.53;;;11.33;;
73672;SDS011;61972;19.480;-99.240;2024-03-23T08:31:06;19.33;;;11.23;;
73672;SDS011;61972;19.480;-99.240;2024-03-23T08:33:35;17.60;;;10.73;;
73672;SDS011;61972;19.480;-99.240;2024-03-23T08:36:06;15.95;;;11.23;;
73672;SDS011;61972;19.480;-99.240;2024-03-23T08:38:33;18.35;;;11.25;;
73672;SDS011;61972;19.480;-99.240;2024-03-23T08:41:01;16.33;;;10.70;;
73672;SDS011;61972;19.480;-99.240;2024-03-23T08:43:29;15.32;;;10.88;;
73672;SDS011;61972;19.480;-99.240;2024-03-23T08:46:12;17.83;;;12.35;;
73672;SDS011;61972;19.480;-99.240;2024-03-23T08:48:40;18.67;;;12.63;;
73672;SDS011;61972;19.480;-99.240;2024-03-23T08:51:09;26.17;;;12.13;;
73672;SDS011;61972;19.480;-99.240;2024-03-23T08:53:36;19.87;;;12.60;;
73672;SDS011;61972;19.480;-99.240;2024-03-23T08:56:02;20.63;;;12.25;;
73672;SDS011;61972;19.480;-99.240;2024-03-23T08:58:30;20.20;;;11.55;;
73672;SDS011;61972;19.480;-99.240;2024-03-23T09:00:57;18.58;;;10.93;;
73672;SDS011;61972;19.480;-99.240;2024-03-23T09:03:41;17.35;;;11.80;;
73672;SDS011;61972;19.480;-99.240;2024-03-23T09:06:08;17.07;;;11.20;;
73672;SDS011;61972;19.480;-99.240;2024-03-23T09:08:35;18.05;;;11.50;;
73672;SDS011;61972;19.480;-99.240;2024-03-23T09:11:08;18.92;;;11.73;;
73672;SDS011;61972;19.480;-99.240;2024-03-23T09:13:36;16.85;;;11.35;;
73672;SDS011;61972;19.480;-99.240;2024-03-23T09:16:03;21.88;;;11.55;;
73672;SDS011;61972;19.480;-99.240;2024-03-23T09:18:31;16.40;;;11.10;;
73672;SDS011;61972;19.480;-99.240;2024-03-23T09:21:00;19.63;;;10.75;;
73672;SDS011;61972;19.480;-99.240;2024-03-23T09:23:27;22.92;;;11.88;;
73672;SDS011;61972;19.480;-99.240;2024-03-23T09:25:53;15.80;;;10.95;;
73672;SDS011;61972;19.480;-99.240;2024-03-23T09:28:19;17.08;;;11.25;;
73672;SDS011;61972;19.480;-99.240;2024-03-23T09:30:45;17.00;;;11.30;;
73672;SDS011;61972;19.480;-99.240;2024-03-23T09:33:11;17.55;;;10.93;;
73672;SDS011;61972;19.480;-99.240;2024-03-23T09:35:41;17.05;;;11.40;;
73672;SDS011;61972;19.480;-99.240;2024-03-23T09:38:09;18.75;;;11.55;;
73672;SDS011;61972;19.480;-99.240;2024-03-23T09:40:42;19.20;;;11.40;;
73672;SDS011;61972;19.480;-99.240;2024-03-23T09:43:09;17.43;;;11.63;;
73672;SDS011;61972;19.480;-99.240;2024-03-23T09:45:39;17.10;;;11.63;;
73672;SDS011;61972;19.480;-99.240;2024-03-23T09:48:09;18.15;;;12.55;;
73672;SDS011;61972;19.480;-99.240;2024-03-23T09:53:08;18.20;;;12.20;;
73672;SDS011;61972;19.480;-99.240;2024-03-23T09:55:41;20.93;;;12.53;;
73672;SDS011;61972;19.480;-99.240;2024-03-23T09:58:12;18.83;;;12.50;;
73672;SDS011;61972;19.480;-99.240;2024-03-23T10:00:39;19.02;;;12.63;;
73672;SDS011;61972;19.480;-99.240;2024-03-23T10:03:05;19.08;;;12.73;;
73672;SDS011;61972;19.480;-99.240;2024-03-23T10:05:32;19.23;;;13.30;;
73672;SDS011;61972;19.480;-99.240;2024-03-23T10:10:41;19.23;;;13.02;;
73672;SDS011;61972;19.480;-99.240;2024-03-23T10:13:08;21.20;;;13.30;;
73672;SDS011;61972;19.480;-99.240;2024-03-23T10:15:35;19.95;;;13.45;;
73672;SDS011;61972;19.480;-99.240;2024-03-23T10:18:18;21.00;;;14.10;;
73672;SDS011;61972;19.480;-99.240;2024-03-23T10:20:51;21.70;;;13.40;;
73672;SDS011;61972;19.480;-99.240;2024-03-23T10:23:31;23.58;;;14.88;;
73672;SDS011;61972;19.480;-99.240;2024-03-23T10:31:38;24.65;;;15.55;;
73672;SDS011;61972;19.480;-99.240;2024-03-23T10:34:06;22.23;;;15.10;;
73672;SDS011;61972;19.480;-99.240;2024-03-23T10:36:32;25.00;;;15.63;;
73672;SDS011;61972;19.480;-99.240;2024-03-23T10:39:00;24.85;;;16.38;;
73672;SDS011;61972;19.480;-99.240;2024-03-23T10:41:27;25.70;;;16.23;;
73672;SDS011;61972;19.480;-99.240;2024-03-23T10:43:57;23.48;;;16.25;;
73672;SDS011;61972;19.480;-99.240;2024-03-23T10:46:24;24.53;;;16.53;;
73672;SDS011;61972;19.480;-99.240;2024-03-23T10:48:51;25.83;;;16.92;;
73672;SDS011;61972;19.480;-99.240;2024-03-23T10:51:18;30.33;;;17.67;;
73672;SDS011;61972;19.480;-99.240;2024-03-23T10:53:44;25.98;;;17.25;;
73672;SDS011;61972;19.480;-99.240;2024-03-23T10:56:11;28.90;;;17.52;;
73672;SDS011;61972;19.480;-99.240;2024-03-23T10:58:40;26.90;;;17.53;;
73672;SDS011;61972;19.480;-99.240;2024-03-23T11:01:11;28.45;;;17.52;;
73672;SDS011;61972;19.480;-99.240;2024-03-23T11:03:39;27.58;;;18.15;;
73672;SDS011;61972;19.480;-99.240;2024-03-23T11:06:10;30.70;;;19.60;;
73672;SDS011;61972;19.480;-99.240;2024-03-23T11:08:36;28.85;;;19.05;;
73672;SDS011;61972;19.480;-99.240;2024-03-23T11:13:59;32.25;;;19.67;;
73672;SDS011;61972;19.480;-99.240;2024-03-23T11:16:26;30.65;;;20.02;;
73672;SDS011;61972;19.480;-99.240;2024-03-23T11:22:04;29.65;;;20.52;;
73672;SDS011;61972;19.480;-99.240;2024-03-23T11:24:36;31.57;;;20.63;;
73672;SDS011;61972;19.480;-99.240;2024-03-23T11:27:16;35.10;;;20.65;;
73672;SDS011;61972;19.480;-99.240;2024-03-23T11:29:43;35.47;;;20.60;;
73672;SDS011;61972;19.480;-99.240;2024-03-23T11:32:09;30.58;;;20.15;;
73672;SDS011;61972;19.480;-99.240;2024-03-23T11:34:38;38.40;;;22.95;;
73672;SDS011;61972;19.480;-99.240;2024-03-23T11:37:05;31.87;;;21.43;;
73672;SDS011;61972;19.480;-99.240;2024-03-23T11:39:31;35.83;;;22.13;;
73672;SDS011;61972;19.480;-99.240;2024-03-23T11:41:58;37.25;;;23.25;;
73672;SDS011;61972;19.480;-99.240;2024-03-23T11:44:27;35.58;;;22.10;;
73672;SDS011;61972;19.480;-99.240;2024-03-23T11:46:53;35.05;;;22.25;;
73672;SDS011;61972;19.480;-99.240;2024-03-23T11:49:32;37.03;;;22.83;;
73672;SDS011;61972;19.480;-99.240;2024-03-23T11:52:05;40.83;;;23.42;;
73672;SDS011;61972;19.480;-99.240;2024-03-23T11:54:33;33.85;;;23.33;;
73672;SDS011;61972;19.480;-99.240;2024-03-23T11:56:59;35.95;;;24.15;;
73672;SDS011;61972;19.480;-99.240;2024-03-23T11:59:31;40.53;;;23.20;;
73672;SDS011;61972;19.480;-99.240;2024-03-23T12:01:57;36.13;;;22.30;;
73672;SDS011;61972;19.480;-99.240;2024-03-23T12:04:27;41.55;;;23.40;;
73672;SDS011;61972;19.480;-99.240;2024-03-23T12:10:04;38.55;;;22.80;;
73672;SDS011;61972;19.480;-99.240;2024-03-23T12:12:34;36.90;;;21.65;;
73672;SDS011;61972;19.480;-99.240;2024-03-23T12:15:07;34.60;;;22.50;;
73672;SDS011;61972;19.480;-99.240;2024-03-23T12:17:34;38.10;;;20.90;;
73672;SDS011;61972;19.480;-99.240;2024-03-23T12:20:01;33.05;;;21.67;;
73672;SDS011;61972;19.480;-99.240;2024-03-23T12:22:27;33.22;;;20.73;;
73672;SDS011;61972;19.480;-99.240;2024-03-23T12:24:55;35.60;;;21.45;;
73672;SDS011;61972;19.480;-99.240;2024-03-23T12:27:21;32.83;;;20.47;;
73672;SDS011;61972;19.480;-99.240;2024-03-23T12:29:48;37.25;;;21.45;;
73672;SDS011;61972;19.480;-99.240;2024-03-23T12:32:14;35.30;;;21.20;;
73672;SDS011;61972;19.480;-99.240;2024-03-23T12:34:41;32.22;;;19.83;;
73672;SDS011;61972;19.480;-99.240;2024-03-23T12:37:08;31.45;;;19.35;;
73672;SDS011;61972;19.480;-99.240;2024-03-23T12:39:38;30.07;;;20.50;;
73672;SDS011;61972;19.480;-99.240;2024-03-23T12:42:10;33.05;;;20.23;;
73672;SDS011;61972;19.480;-99.240;2024-03-23T12:44:37;31.85;;;19.52;;
73672;SDS011;61972;19.480;-99.240;2024-03-23T12:47:03;29.38;;;19.02;;
73672;SDS011;61972;19.480;-99.240;2024-03-23T12:49:29;31.52;;;19.80;;
73672;SDS011;61972;19.480;-99.240;2024-03-23T12:51:55;30.20;;;18.93;;
73672;SDS011;61972;19.480;-99.240;2024-03-23T12:54:22;29.92;;;18.27;;
73672;SDS011;61972;19.480;-99.240;2024-03-23T12:56:49;30.10;;;18.83;;
73672;SDS011;61972;19.480;-99.240;2024-03-23T12:59:16;30.25;;;17.65;;
73672;SDS011;61972;19.480;-99.240;2024-03-23T13:01:43;26.95;;;18.23;;
73672;SDS011;61972;19.480;-99.240;2024-03-23T13:04:11;30.10;;;19.07;;
73672;SDS011;61972;19.480;-99.240;2024-03-23T13:06:37;28.83;;;18.38;;
73672;SDS011;61972;19.480;-99.240;2024-03-23T13:09:04;28.65;;;18.30;;
73672;SDS011;61972;19.480;-99.240;2024-03-23T13:11:30;29.65;;;18.42;;
73672;SDS011;61972;19.480;-99.240;2024-03-23T13:13:56;29.20;;;18.20;;
73672;SDS011;61972;19.480;-99.240;2024-03-23T13:16:22;27.87;;;16.73;;
73672;SDS011;61972;19.480;-99.240;2024-03-23T13:18:49;27.65;;;18.05;;
73672;SDS011;61972;19.480;-99.240;2024-03-23T13:21:15;34.35;;;19.08;;
73672;SDS011;61972;19.480;-99.240;2024-03-23T13:23:42;28.70;;;17.73;;
73672;SDS011;61972;19.480;-99.240;2024-03-23T13:26:11;29.58;;;18.42;;
73672;SDS011;61972;19.480;-99.240;2024-03-23T13:28:37;28.43;;;17.53;;
73672;SDS011;61972;19.480;-99.240;2024-03-23T13:31:03;32.65;;;18.40;;
73672;SDS011;61972;19.480;-99.240;2024-03-23T13:33:29;29.15;;;18.65;;
73672;SDS011;61972;19.480;-99.240;2024-03-23T13:35:57;29.27;;;17.67;;
73672;SDS011;61972;19.480;-99.240;2024-03-23T13:38:24;31.17;;;17.75;;
73672;SDS011;61972;19.480;-99.240;2024-03-23T13:40:53;29.60;;;17.80;;
73672;SDS011;61972;19.480;-99.240;2024-03-23T13:43:22;28.30;;;18.10;;
73672;SDS011;61972;19.480;-99.240;2024-03-23T13:45:55;28.40;;;17.50;;
73672;SDS011;61972;19.480;-99.240;2024-03-23T13:48:26;29.40;;;17.67;;
73672;SDS011;61972;19.480;-99.240;2024-03-23T13:51:01;29.10;;;18.50;;
73672;SDS011;61972;19.480;-99.240;2024-03-23T13:53:28;28.83;;;17.10;;
73672;SDS011;61972;19.480;-99.240;2024-03-23T13:55:55;28.20;;;16.48;;
73672;SDS011;61972;19.480;-99.240;2024-03-23T13:58:21;26.80;;;16.63;;
73672;SDS011;61972;19.480;-99.240;2024-03-23T14:00:51;25.35;;;15.48;;
73672;SDS011;61972;19.480;-99.240;2024-03-23T14:03:17;25.83;;;16.65;;
73672;SDS011;61972;19.480;-99.240;2024-03-23T14:05:46;25.20;;;16.03;;
73672;SDS011;61972;19.480;-99.240;2024-03-23T14:08:12;24.33;;;15.82;;
73672;SDS011;61972;19.480;-99.240;2024-03-23T14:10:40;27.02;;;15.52;;
73672;SDS011;61972;19.480;-99.240;2024-03-23T14:13:07;23.77;;;15.52;;
73672;SDS011;61972;19.480;-99.240;2024-03-23T14:15:33;25.08;;;15.27;;
73672;SDS011;61972;19.480;-99.240;2024-03-23T14:17:59;27.90;;;15.80;;
73672;SDS011;61972;19.480;-99.240;2024-03-23T14:20:25;23.83;;;14.63;;
73672;SDS011;61972;19.480;-99.240;2024-03-23T14:22:52;24.60;;;15.48;;
73672;SDS011;61972;19.480;-99.240;2024-03-23T14:25:18;24.33;;;14.52;;
73672;SDS011;61972;19.480;-99.240;2024-03-23T14:27:44;23.73;;;14.77;;
73672;SDS011;61972;19.480;-99.240;2024-03-23T14:30:11;22.93;;;14.73;;
73672;SDS011;61972;19.480;-99.240;2024-03-23T14:32:38;22.65;;;14.70;;
73672;SDS011;61972;19.480;-99.240;2024-03-23T14:35:04;23.45;;;14.82;;
73672;SDS011;61972;19.480;-99.240;2024-03-23T14:37:32;20.38;;;14.40;;
73672;SDS011;61972;19.480;-99.240;2024-03-23T14:39:58;21.60;;;14.13;;
73672;SDS011;61972;19.480;-99.240;2024-03-23T14:42:24;21.80;;;13.83;;
73672;SDS011;61972;19.480;-99.240;2024-03-23T14:44:51;22.25;;;14.00;;
73672;SDS011;61972;19.480;-99.240;2024-03-23T14:47:18;21.17;;;13.23;;
73672;SDS011;61972;19.480;-99.240;2024-03-23T14:49:46;21.00;;;13.68;;
73672;SDS011;61972;19.480;-99.240;2024-03-23T14:52:18;19.67;;;13.05;;
73672;SDS011;61972;19.480;-99.240;2024-03-23T14:54:45;24.00;;;13.87;;
73672;SDS011;61972;19.480;-99.240;2024-03-23T14:57:11;21.55;;;13.35;;
73672;SDS011;61972;19.480;-99.240;2024-03-23T14:59:38;22.58;;;13.60;;
73672;SDS011;61972;19.480;-99.240;2024-03-23T15:02:09;22.77;;;13.65;;
73672;SDS011;61972;19.480;-99.240;2024-03-23T15:04:35;22.42;;;13.77;;
73672;SDS011;61972;19.480;-99.240;2024-03-23T15:07:02;21.97;;;13.00;;
73672;SDS011;61972;19.480;-99.240;2024-03-23T15:09:28;22.77;;;13.35;;
73672;SDS011;61972;19.480;-99.240;2024-03-23T15:11:54;20.15;;;13.60;;
73672;SDS011;61972;19.480;-99.240;2024-03-23T15:14:21;21.80;;;13.57;;